sensor_id;sensor_type;location;lat;lon;timestamp;temperature;humidity
47336;DHT22;33068;51.990;5.926;2023-05-07T00:01:55;14.20;99.90
47336;DHT22;33068;51.990;5.926;2023-05-07T00:04:22;14.10;99.90
47336;DHT22;33068;51.990;5.926;2023-05-07T00:06:49;14.10;99.90
47336;DHT22;33068;51.990;5.926;2023-05-07T00:09:18;14.10;99.90
47336;DHT22;33068;51.990;5.926;2023-05-07T00:11:45;14.10;99.90
47336;DHT22;33068;51.990;5.926;2023-05-07T00:14:12;14.00;99.90
47336;DHT22;33068;51.990;5.926;2023-05-07T00:16:39;14.00;99.90
47336;DHT22;33068;51.990;5.926;2023-05-07T00:19:06;14.00;99.90
47336;DHT22;33068;51.990;5.926;2023-05-07T00:21:33;14.00;99.90
47336;DHT22;33068;51.990;5.926;2023-05-07T00:24:00;14.00;99.90
47336;DHT22;33068;51.990;5.926;2023-05-07T00:26:29;14.00;99.90
47336;DHT22;33068;51.990;5.926;2023-05-07T00:28:56;14.00;99.90
47336;DHT22;33068;51.990;5.926;2023-05-07T00:31:23;14.00;99.90
47336;DHT22;33068;51.990;5.926;2023-05-07T00:33:50;14.00;99.90
47336;DHT22;33068;51.990;5.926;2023-05-07T00:36:17;13.90;99.90
47336;DHT22;33068;51.990;5.926;2023-05-07T00:38:44;13.90;99.90
47336;DHT22;33068;51.990;5.926;2023-05-07T00:41:11;13.90;99.90
47336;DHT22;33068;51.990;5.926;2023-05-07T00:43:39;13.90;99.90
47336;DHT22;33068;51.990;5.926;2023-05-07T00:46:06;13.90;99.90
47336;DHT22;33068;51.990;5.926;2023-05-07T00:48:33;13.80;99.90
47336;DHT22;33068;51.990;5.926;2023-05-07T00:51:01;13.80;99.90
47336;DHT22;33068;51.990;5.926;2023-05-07T00:53:28;13.80;99.90
47336;DHT22;33068;51.990;5.926;2023-05-07T00:55:56;13.70;99.90
47336;DHT22;33068;51.990;5.926;2023-05-07T00:58:24;13.70;99.90
47336;DHT22;33068;51.990;5.926;2023-05-07T01:00:52;13.70;99.90
47336;DHT22;33068;51.990;5.926;2023-05-07T01:03:22;13.60;99.90
47336;DHT22;33068;51.990;5.926;2023-05-07T01:05:50;13.60;99.90
47336;DHT22;33068;51.990;5.926;2023-05-07T01:08:18;13.50;99.90
47336;DHT22;33068;51.990;5.926;2023-05-07T01:10:46;13.50;99.90
47336;DHT22;33068;51.990;5.926;2023-05-07T01:13:14;13.60;99.90
47336;DHT22;33068;51.990;5.926;2023-05-07T01:15:42;13.50;99.90
47336;DHT22;33068;51.990;5.926;2023-05-07T01:18:11;13.50;99.90
47336;DHT22;33068;51.990;5.926;2023-05-07T01:20:38;13.50;99.90
47336;DHT22;33068;51.990;5.926;2023-05-07T01:23:07;13.50;99.90
47336;DHT22;33068;51.990;5.926;2023-05-07T01:25:34;13.40;99.90
47336;DHT22;33068;51.990;5.926;2023-05-07T01:28:02;13.40;99.90
47336;DHT22;33068;51.990;5.926;2023-05-07T01:30:33;13.40;99.90
47336;DHT22;33068;51.990;5.926;2023-05-07T01:33:06;13.40;99.90
47336;DHT22;33068;51.990;5.926;2023-05-07T01:35:38;13.50;99.90
47336;DHT22;33068;51.990;5.926;2023-05-07T01:38:07;13.50;99.90
47336;DHT22;33068;51.990;5.926;2023-05-07T01:40:35;13.20;99.90
47336;DHT22;33068;51.990;5.926;2023-05-07T01:43:02;13.50;99.90
47336;DHT22;33068;51.990;5.926;2023-05-07T01:45:31;13.50;99.90
47336;DHT22;33068;51.990;5.926;2023-05-07T01:47:59;13.50;99.90
47336;DHT22;33068;51.990;5.926;2023-05-07T01:50:27;13.50;99.90
47336;DHT22;33068;51.990;5.926;2023-05-07T01:52:54;13.50;99.90
47336;DHT22;33068;51.990;5.926;2023-05-07T01:55:24;13.50;99.90
47336;DHT22;33068;51.990;5.926;2023-05-07T01:57:51;13.50;99.90
47336;DHT22;33068;51.990;5.926;2023-05-07T02:00:19;13.50;99.90
47336;DHT22;33068;51.990;5.926;2023-05-07T02:02:46;13.50;99.90
47336;DHT22;33068;51.990;5.926;2023-05-07T02:05:25;13.50;99.90
47336;DHT22;33068;51.990;5.926;2023-05-07T02:07:59;13.50;99.90
47336;DHT22;33068;51.990;5.926;2023-05-07T02:10:29;13.50;99.90
47336;DHT22;33068;51.990;5.926;2023-05-07T02:12:56;13.50;99.90
47336;DHT22;33068;51.990;5.926;2023-05-07T02:15:23;13.50;99.90
47336;DHT22;33068;51.990;5.926;2023-05-07T02:17:59;13.50;99.90
47336;DHT22;33068;51.990;5.926;2023-05-07T02:20:27;13.50;99.90
47336;DHT22;33068;51.990;5.926;2023-05-07T02:22:54;13.50;99.90
47336;DHT22;33068;51.990;5.926;2023-05-07T02:25:21;13.60;99.90
47336;DHT22;33068;51.990;5.926;2023-05-07T02:27:49;13.60;99.90
47336;DHT22;33068;51.990;5.926;2023-05-07T02:30:18;13.60;99.90
47336;DHT22;33068;51.990;5.926;2023-05-07T02:32:47;13.60;99.90
47336;DHT22;33068;51.990;5.926;2023-05-07T02:35:15;13.60;99.90
47336;DHT22;33068;51.990;5.926;2023-05-07T02:37:42;13.60;99.90
47336;DHT22;33068;51.990;5.926;2023-05-07T02:40:10;13.10;99.90
47336;DHT22;33068;51.990;5.926;2023-05-07T02:42:37;13.50;99.90
47336;DHT22;33068;51.990;5.926;2023-05-07T02:45:07;13.50;99.90
47336;DHT22;33068;51.990;5.926;2023-05-07T02:47:35;13.50;99.90
47336;DHT22;33068;51.990;5.926;2023-05-07T02:50:04;13.50;99.90
47336;DHT22;33068;51.990;5.926;2023-05-07T02:52:31;13.50;99.90
47336;DHT22;33068;51.990;5.926;2023-05-07T02:54:59;13.50;99.90
47336;DHT22;33068;51.990;5.926;2023-05-07T02:57:26;13.50;99.90
47336;DHT22;33068;51.990;5.926;2023-05-07T02:59:53;13.50;99.90
47336;DHT22;33068;51.990;5.926;2023-05-07T03:02:22;13.50;99.90
47336;DHT22;33068;51.990;5.926;2023-05-07T03:04:50;13.50;99.90
47336;DHT22;33068;51.990;5.926;2023-05-07T03:07:18;13.50;99.90
47336;DHT22;33068;51.990;5.926;2023-05-07T03:09:45;13.50;99.90
47336;DHT22;33068;51.990;5.926;2023-05-07T03:12:12;13.50;99.90
47336;DHT22;33068;51.990;5.926;2023-05-07T03:14:39;13.50;99.90
47336;DHT22;33068;51.990;5.926;2023-05-07T03:17:06;13.50;99.90
47336;DHT22;33068;51.990;5.926;2023-05-07T03:19:35;13.50;99.90
47336;DHT22;33068;51.990;5.926;2023-05-07T03:22:02;13.50;99.90
47336;DHT22;33068;51.990;5.926;2023-05-07T03:24:32;13.50;99.90
47336;DHT22;33068;51.990;5.926;2023-05-07T03:26:59;13.90;99.90
47336;DHT22;33068;51.990;5.926;2023-05-07T03:29:27;13.50;99.90
47336;DHT22;33068;51.990;5.926;2023-05-07T03:31:54;13.50;99.90
47336;DHT22;33068;51.990;5.926;2023-05-07T03:34:22;13.50;99.90
47336;DHT22;33068;51.990;5.926;2023-05-07T03:36:51;13.50;99.90
47336;DHT22;33068;51.990;5.926;2023-05-07T03:39:19;13.40;99.90
47336;DHT22;33068;51.990;5.926;2023-05-07T03:41:46;13.40;99.90
47336;DHT22;33068;51.990;5.926;2023-05-07T03:44:13;13.30;99.90
47336;DHT22;33068;51.990;5.926;2023-05-07T03:46:40;13.30;99.90
47336;DHT22;33068;51.990;5.926;2023-05-07T03:49:10;13.30;99.90
47336;DHT22;33068;51.990;5.926;2023-05-07T03:51:37;13.30;99.90
47336;DHT22;33068;51.990;5.926;2023-05-07T03:54:07;13.30;99.90
47336;DHT22;33068;51.990;5.926;2023-05-07T03:56:35;13.30;99.90
47336;DHT22;33068;51.990;5.926;2023-05-07T03:59:02;13.30;99.90
47336;DHT22;33068;51.990;5.926;2023-05-07T04:01:29;13.30;99.90
47336;DHT22;33068;51.990;5.926;2023-05-07T04:03:56;13.30;99.90
47336;DHT22;33068;51.990;5.926;2023-05-07T04:06:24;13.30;99.90
47336;DHT22;33068;51.990;5.926;2023-05-07T04:08:52;13.30;99.90
47336;DHT22;33068;51.990;5.926;2023-05-07T04:11:20;13.30;99.90
47336;DHT22;33068;51.990;5.926;2023-05-07T04:13:47;13.30;99.90
47336;DHT22;33068;51.990;5.926;2023-05-07T04:16:19;13.30;99.90
47336;DHT22;33068;51.990;5.926;2023-05-07T04:18:46;13.40;99.90
47336;DHT22;33068;51.990;5.926;2023-05-07T04:21:14;13.30;99.90
47336;DHT22;33068;51.990;5.926;2023-05-07T04:23:42;13.40;99.90
47336;DHT22;33068;51.990;5.926;2023-05-07T04:26:11;13.30;99.90
47336;DHT22;33068;51.990;5.926;2023-05-07T04:28:42;13.40;99.90
47336;DHT22;33068;51.990;5.926;2023-05-07T04:31:09;13.40;99.90
47336;DHT22;33068;51.990;5.926;2023-05-07T04:33:37;13.40;99.90
47336;DHT22;33068;51.990;5.926;2023-05-07T04:36:07;13.40;99.90
47336;DHT22;33068;51.990;5.926;2023-05-07T04:38:42;13.40;99.90
47336;DHT22;33068;51.990;5.926;2023-05-07T04:41:12;13.40;99.90
47336;DHT22;33068;51.990;5.926;2023-05-07T04:43:41;13.50;99.90
47336;DHT22;33068;51.990;5.926;2023-05-07T04:46:11;13.40;99.90
47336;DHT22;33068;51.990;5.926;2023-05-07T04:48:39;13.40;99.90
47336;DHT22;33068;51.990;5.926;2023-05-07T04:51:06;13.50;99.90
47336;DHT22;33068;51.990;5.926;2023-05-07T04:53:33;13.40;99.90
47336;DHT22;33068;51.990;5.926;2023-05-07T04:56:01;13.50;99.90
47336;DHT22;33068;51.990;5.926;2023-05-07T04:58:34;13.50;99.90
47336;DHT22;33068;51.990;5.926;2023-05-07T05:01:03;13.50;99.90
47336;DHT22;33068;51.990;5.926;2023-05-07T05:03:30;13.50;99.90
47336;DHT22;33068;51.990;5.926;2023-05-07T05:05:58;13.50;99.90
47336;DHT22;33068;51.990;5.926;2023-05-07T05:08:30;13.60;99.90
47336;DHT22;33068;51.990;5.926;2023-05-07T05:10:57;13.60;99.90
47336;DHT22;33068;51.990;5.926;2023-05-07T05:13:24;13.60;99.90
47336;DHT22;33068;51.990;5.926;2023-05-07T05:15:51;13.60;99.90
47336;DHT22;33068;51.990;5.926;2023-05-07T05:18:20;13.60;99.90
47336;DHT22;33068;51.990;5.926;2023-05-07T05:20:48;13.60;99.90
47336;DHT22;33068;51.990;5.926;2023-05-07T05:23:16;13.60;99.90
47336;DHT22;33068;51.990;5.926;2023-05-07T05:25:43;13.70;99.90
47336;DHT22;33068;51.990;5.926;2023-05-07T05:28:13;13.70;99.90
47336;DHT22;33068;51.990;5.926;2023-05-07T05:30:40;13.70;99.90
47336;DHT22;33068;51.990;5.926;2023-05-07T05:33:08;13.70;99.90
47336;DHT22;33068;51.990;5.926;2023-05-07T05:35:37;13.70;99.90
47336;DHT22;33068;51.990;5.926;2023-05-07T05:38:08;13.80;99.90
47336;DHT22;33068;51.990;5.926;2023-05-07T05:40:35;13.70;99.90
47336;DHT22;33068;51.990;5.926;2023-05-07T05:43:02;13.70;99.90
47336;DHT22;33068;51.990;5.926;2023-05-07T05:45:31;13.70;99.90
47336;DHT22;33068;51.990;5.926;2023-05-07T05:47:58;13.80;99.90
47336;DHT22;33068;51.990;5.926;2023-05-07T05:50:25;13.80;99.90
47336;DHT22;33068;51.990;5.926;2023-05-07T05:52:54;13.80;99.90
47336;DHT22;33068;51.990;5.926;2023-05-07T05:55:22;13.90;99.90
47336;DHT22;33068;51.990;5.926;2023-05-07T05:57:50;13.80;99.90
47336;DHT22;33068;51.990;5.926;2023-05-07T06:00:18;13.80;99.90
47336;DHT22;33068;51.990;5.926;2023-05-07T06:02:55;13.80;99.90
47336;DHT22;33068;51.990;5.926;2023-05-07T06:05:24;13.90;99.90
47336;DHT22;33068;51.990;5.926;2023-05-07T06:07:55;13.90;99.90
47336;DHT22;33068;51.990;5.926;2023-05-07T06:10:22;14.00;99.90
47336;DHT22;33068;51.990;5.926;2023-05-07T06:12:50;14.00;99.90
47336;DHT22;33068;51.990;5.926;2023-05-07T06:15:26;14.00;99.90
47336;DHT22;33068;51.990;5.926;2023-05-07T06:18:02;14.00;99.90
47336;DHT22;33068;51.990;5.926;2023-05-07T06:20:30;13.90;99.90
47336;DHT22;33068;51.990;5.926;2023-05-07T06:22:59;14.10;99.90
47336;DHT22;33068;51.990;5.926;2023-05-07T06:25:27;14.20;99.90
47336;DHT22;33068;51.990;5.926;2023-05-07T06:27:54;14.20;99.90
47336;DHT22;33068;51.990;5.926;2023-05-07T06:30:23;14.20;99.90
47336;DHT22;33068;51.990;5.926;2023-05-07T06:32:51;14.30;99.90
47336;DHT22;33068;51.990;5.926;2023-05-07T06:35:19;14.30;99.90
47336;DHT22;33068;51.990;5.926;2023-05-07T06:37:46;14.40;99.90
47336;DHT22;33068;51.990;5.926;2023-05-07T06:40:19;14.50;99.90
47336;DHT22;33068;51.990;5.926;2023-05-07T06:42:48;14.60;99.90
47336;DHT22;33068;51.990;5.926;2023-05-07T06:45:28;14.60;99.90
47336;DHT22;33068;51.990;5.926;2023-05-07T06:47:56;14.60;99.90
47336;DHT22;33068;51.990;5.926;2023-05-07T06:50:24;14.70;99.90
47336;DHT22;33068;51.990;5.926;2023-05-07T06:52:55;14.60;99.90
47336;DHT22;33068;51.990;5.926;2023-05-07T06:55:23;14.70;99.90
47336;DHT22;33068;51.990;5.926;2023-05-07T06:57:50;14.70;99.90
47336;DHT22;33068;51.990;5.926;2023-05-07T07:00:20;14.70;99.90
47336;DHT22;33068;51.990;5.926;2023-05-07T07:02:52;14.70;99.90
47336;DHT22;33068;51.990;5.926;2023-05-07T07:05:22;14.70;99.90
47336;DHT22;33068;51.990;5.926;2023-05-07T07:07:50;14.80;99.90
47336;DHT22;33068;51.990;5.926;2023-05-07T07:10:18;14.80;99.90
47336;DHT22;33068;51.990;5.926;2023-05-07T07:12:48;14.90;99.90
47336;DHT22;33068;51.990;5.926;2023-05-07T07:15:15;14.90;99.90
47336;DHT22;33068;51.990;5.926;2023-05-07T07:17:43;15.00;99.90
47336;DHT22;33068;51.990;5.926;2023-05-07T07:20:11;15.00;99.90
47336;DHT22;33068;51.990;5.926;2023-05-07T07:22:38;15.10;99.90
47336;DHT22;33068;51.990;5.926;2023-05-07T07:25:06;15.10;99.90
47336;DHT22;33068;51.990;5.926;2023-05-07T07:27:33;15.10;99.90
47336;DHT22;33068;51.990;5.926;2023-05-07T07:30:02;15.20;99.90
47336;DHT22;33068;51.990;5.926;2023-05-07T07:32:32;15.20;99.90
47336;DHT22;33068;51.990;5.926;2023-05-07T07:34:59;15.20;99.90
47336;DHT22;33068;51.990;5.926;2023-05-07T07:37:27;15.20;99.90
47336;DHT22;33068;51.990;5.926;2023-05-07T07:39:56;15.20;99.90
47336;DHT22;33068;51.990;5.926;2023-05-07T07:42:23;15.20;99.90
47336;DHT22;33068;51.990;5.926;2023-05-07T07:44:50;15.20;99.90
47336;DHT22;33068;51.990;5.926;2023-05-07T07:47:22;15.20;99.90
47336;DHT22;33068;51.990;5.926;2023-05-07T07:49:50;15.40;99.90
47336;DHT22;33068;51.990;5.926;2023-05-07T07:52:18;15.50;99.90
47336;DHT22;33068;51.990;5.926;2023-05-07T07:54:46;15.60;99.90
47336;DHT22;33068;51.990;5.926;2023-05-07T07:57:13;15.60;99.90
47336;DHT22;33068;51.990;5.926;2023-05-07T07:59:40;15.60;99.90
47336;DHT22;33068;51.990;5.926;2023-05-07T08:02:10;15.60;99.90
47336;DHT22;33068;51.990;5.926;2023-05-07T08:04:38;15.60;99.90
47336;DHT22;33068;51.990;5.926;2023-05-07T08:07:07;15.70;99.90
47336;DHT22;33068;51.990;5.926;2023-05-07T08:09:38;15.70;99.90
47336;DHT22;33068;51.990;5.926;2023-05-07T08:12:06;15.70;99.90
47336;DHT22;33068;51.990;5.926;2023-05-07T08:14:34;15.80;99.90
47336;DHT22;33068;51.990;5.926;2023-05-07T08:17:03;15.70;99.90
47336;DHT22;33068;51.990;5.926;2023-05-07T08:19:30;15.80;99.90
47336;DHT22;33068;51.990;5.926;2023-05-07T08:21:59;15.90;99.90
47336;DHT22;33068;51.990;5.926;2023-05-07T08:24:26;16.00;99.90
47336;DHT22;33068;51.990;5.926;2023-05-07T08:26:54;16.00;99.90
47336;DHT22;33068;51.990;5.926;2023-05-07T08:29:21;15.90;99.90
47336;DHT22;33068;51.990;5.926;2023-05-07T08:31:48;16.00;99.90
47336;DHT22;33068;51.990;5.926;2023-05-07T08:34:15;16.10;99.90
47336;DHT22;33068;51.990;5.926;2023-05-07T08:36:45;16.00;99.90
47336;DHT22;33068;51.990;5.926;2023-05-07T08:39:17;16.20;99.90
47336;DHT22;33068;51.990;5.926;2023-05-07T08:41:48;16.30;99.90
47336;DHT22;33068;51.990;5.926;2023-05-07T08:44:22;16.30;99.90
47336;DHT22;33068;51.990;5.926;2023-05-07T08:46:52;16.40;99.90
47336;DHT22;33068;51.990;5.926;2023-05-07T08:49:21;16.40;99.90
47336;DHT22;33068;51.990;5.926;2023-05-07T08:51:51;16.50;99.90
47336;DHT22;33068;51.990;5.926;2023-05-07T08:54:22;16.60;99.90
47336;DHT22;33068;51.990;5.926;2023-05-07T08:56:49;16.70;99.90
47336;DHT22;33068;51.990;5.926;2023-05-07T08:59:16;16.70;99.90
47336;DHT22;33068;51.990;5.926;2023-05-07T09:01:44;16.70;99.90
47336;DHT22;33068;51.990;5.926;2023-05-07T09:04:12;16.70;99.90
47336;DHT22;33068;51.990;5.926;2023-05-07T09:06:40;16.70;99.90
47336;DHT22;33068;51.990;5.926;2023-05-07T09:09:09;16.80;99.90
47336;DHT22;33068;51.990;5.926;2023-05-07T09:11:42;16.80;99.90
47336;DHT22;33068;51.990;5.926;2023-05-07T09:14:11;16.90;99.90
47336;DHT22;33068;51.990;5.926;2023-05-07T09:16:41;16.90;99.90
47336;DHT22;33068;51.990;5.926;2023-05-07T09:19:09;16.90;99.90
47336;DHT22;33068;51.990;5.926;2023-05-07T09:21:37;17.00;99.90
47336;DHT22;33068;51.990;5.926;2023-05-07T09:24:07;17.30;99.90
47336;DHT22;33068;51.990;5.926;2023-05-07T09:26:39;17.60;99.90
47336;DHT22;33068;51.990;5.926;2023-05-07T09:29:10;17.90;99.90
47336;DHT22;33068;51.990;5.926;2023-05-07T09:31:38;18.00;99.90
47336;DHT22;33068;51.990;5.926;2023-05-07T09:34:08;18.10;99.90
47336;DHT22;33068;51.990;5.926;2023-05-07T09:36:38;18.30;99.90
47336;DHT22;33068;51.990;5.926;2023-05-07T09:39:06;18.40;99.90
47336;DHT22;33068;51.990;5.926;2023-05-07T09:41:33;18.70;99.90
47336;DHT22;33068;51.990;5.926;2023-05-07T09:44:15;18.70;99.90
47336;DHT22;33068;51.990;5.926;2023-05-07T09:46:49;18.70;99.90
47336;DHT22;33068;51.990;5.926;2023-05-07T09:49:23;18.70;99.90
47336;DHT22;33068;51.990;5.926;2023-05-07T09:51:58;18.70;99.90
47336;DHT22;33068;51.990;5.926;2023-05-07T09:54:27;18.70;99.90
47336;DHT22;33068;51.990;5.926;2023-05-07T09:56:57;18.90;99.90
47336;DHT22;33068;51.990;5.926;2023-05-07T09:59:30;19.10;99.90
47336;DHT22;33068;51.990;5.926;2023-05-07T10:02:00;19.30;99.90
47336;DHT22;33068;51.990;5.926;2023-05-07T10:04:28;19.30;99.90
47336;DHT22;33068;51.990;5.926;2023-05-07T10:06:56;19.10;99.90
47336;DHT22;33068;51.990;5.926;2023-05-07T10:09:26;19.00;99.90
47336;DHT22;33068;51.990;5.926;2023-05-07T10:11:54;19.00;99.90
47336;DHT22;33068;51.990;5.926;2023-05-07T10:14:21;19.00;99.90
47336;DHT22;33068;51.990;5.926;2023-05-07T10:16:51;19.20;99.90
47336;DHT22;33068;51.990;5.926;2023-05-07T10:19:20;19.40;99.90
47336;DHT22;33068;51.990;5.926;2023-05-07T10:21:56;19.50;99.90
47336;DHT22;33068;51.990;5.926;2023-05-07T10:24:31;19.80;99.90
47336;DHT22;33068;51.990;5.926;2023-05-07T10:27:02;20.00;99.90
47336;DHT22;33068;51.990;5.926;2023-05-07T10:29:39;20.20;99.90
47336;DHT22;33068;51.990;5.926;2023-05-07T10:32:33;20.40;99.90
47336;DHT22;33068;51.990;5.926;2023-05-07T10:35:06;20.70;99.90
47336;DHT22;33068;51.990;5.926;2023-05-07T10:37:34;21.10;99.90
47336;DHT22;33068;51.990;5.926;2023-05-07T10:40:02;21.30;99.90
47336;DHT22;33068;51.990;5.926;2023-05-07T10:42:30;21.40;99.90
47336;DHT22;33068;51.990;5.926;2023-05-07T10:44:58;21.40;99.90
47336;DHT22;33068;51.990;5.926;2023-05-07T10:50:34;21.50;99.90
47336;DHT22;33068;51.990;5.926;2023-05-07T10:53:24;21.50;99.90
47336;DHT22;33068;51.990;5.926;2023-05-07T10:56:26;21.60;99.90
47336;DHT22;33068;51.990;5.926;2023-05-07T10:59:33;21.60;99.90
47336;DHT22;33068;51.990;5.926;2023-05-07T11:02:14;21.60;99.90
47336;DHT22;33068;51.990;5.926;2023-05-07T11:05:19;21.80;99.90
47336;DHT22;33068;51.990;5.926;2023-05-07T11:07:56;22.10;99.90
47336;DHT22;33068;51.990;5.926;2023-05-07T11:10:49;22.20;99.90
47336;DHT22;33068;51.990;5.926;2023-05-07T11:13:42;22.30;99.90
47336;DHT22;33068;51.990;5.926;2023-05-07T11:16:39;22.00;99.90
47336;DHT22;33068;51.990;5.926;2023-05-07T11:19:48;21.90;99.90
47336;DHT22;33068;51.990;5.926;2023-05-07T11:22:37;21.80;99.90
47336;DHT22;33068;51.990;5.926;2023-05-07T11:25:28;21.90;99.90
47336;DHT22;33068;51.990;5.926;2023-05-07T11:28:07;22.00;99.90
47336;DHT22;33068;51.990;5.926;2023-05-07T11:30:38;22.00;99.90
47336;DHT22;33068;51.990;5.926;2023-05-07T11:33:10;22.00;99.90
47336;DHT22;33068;51.990;5.926;2023-05-07T11:35:38;22.00;99.90
47336;DHT22;33068;51.990;5.926;2023-05-07T11:38:08;22.10;99.90
47336;DHT22;33068;51.990;5.926;2023-05-07T11:40:48;22.20;99.90
47336;DHT22;33068;51.990;5.926;2023-05-07T11:43:16;22.10;99.90
47336;DHT22;33068;51.990;5.926;2023-05-07T11:45:44;22.30;99.90
47336;DHT22;33068;51.990;5.926;2023-05-07T11:48:12;22.20;99.90
47336;DHT22;33068;51.990;5.926;2023-05-07T11:50:50;22.10;99.90
47336;DHT22;33068;51.990;5.926;2023-05-07T11:53:18;21.90;99.90
47336;DHT22;33068;51.990;5.926;2023-05-07T11:55:47;21.80;99.90
47336;DHT22;33068;51.990;5.926;2023-05-07T11:58:21;21.80;99.90
47336;DHT22;33068;51.990;5.926;2023-05-07T12:00:48;22.00;99.90
47336;DHT22;33068;51.990;5.926;2023-05-07T12:03:16;22.10;99.90
47336;DHT22;33068;51.990;5.926;2023-05-07T12:05:44;22.10;99.90
47336;DHT22;33068;51.990;5.926;2023-05-07T12:08:14;22.10;99.90
47336;DHT22;33068;51.990;5.926;2023-05-07T12:10:42;22.20;99.90
47336;DHT22;33068;51.990;5.926;2023-05-07T12:13:15;22.20;99.90
47336;DHT22;33068;51.990;5.926;2023-05-07T12:15:42;22.20;99.90
47336;DHT22;33068;51.990;5.926;2023-05-07T12:18:11;22.20;99.90
47336;DHT22;33068;51.990;5.926;2023-05-07T12:20:39;22.10;99.90
47336;DHT22;33068;51.990;5.926;2023-05-07T12:23:06;22.00;99.90
47336;DHT22;33068;51.990;5.926;2023-05-07T12:25:34;22.00;99.90
47336;DHT22;33068;51.990;5.926;2023-05-07T12:28:02;21.80;99.90
47336;DHT22;33068;51.990;5.926;2023-05-07T12:30:32;21.80;99.90
47336;DHT22;33068;51.990;5.926;2023-05-07T12:32:59;21.60;99.90
47336;DHT22;33068;51.990;5.926;2023-05-07T12:35:27;21.60;99.90
47336;DHT22;33068;51.990;5.926;2023-05-07T12:37:57;21.70;99.90
47336;DHT22;33068;51.990;5.926;2023-05-07T12:40:35;21.80;99.90
47336;DHT22;33068;51.990;5.926;2023-05-07T12:43:02;21.90;99.90
47336;DHT22;33068;51.990;5.926;2023-05-07T12:45:31;21.80;99.90
47336;DHT22;33068;51.990;5.926;2023-05-07T12:48:01;21.70;99.90
47336;DHT22;33068;51.990;5.926;2023-05-07T12:50:31;21.60;99.90
47336;DHT22;33068;51.990;5.926;2023-05-07T12:52:59;21.60;99.90
47336;DHT22;33068;51.990;5.926;2023-05-07T12:55:26;21.50;99.90
47336;DHT22;33068;51.990;5.926;2023-05-07T12:57:53;21.30;99.90
47336;DHT22;33068;51.990;5.926;2023-05-07T13:00:35;21.20;99.90
47336;DHT22;33068;51.990;5.926;2023-05-07T13:03:02;21.20;99.90
47336;DHT22;33068;51.990;5.926;2023-05-07T13:05:29;21.10;99.90
47336;DHT22;33068;51.990;5.926;2023-05-07T13:07:57;21.20;99.90
47336;DHT22;33068;51.990;5.926;2023-05-07T13:10:24;21.20;99.90
47336;DHT22;33068;51.990;5.926;2023-05-07T13:12:52;21.30;99.90
47336;DHT22;33068;51.990;5.926;2023-05-07T13:15:21;21.30;99.90
47336;DHT22;33068;51.990;5.926;2023-05-07T13:17:50;21.30;99.90
47336;DHT22;33068;51.990;5.926;2023-05-07T13:20:17;21.30;99.90
47336;DHT22;33068;51.990;5.926;2023-05-07T13:22:44;21.30;99.90
47336;DHT22;33068;51.990;5.926;2023-05-07T13:25:11;21.20;99.90
47336;DHT22;33068;51.990;5.926;2023-05-07T13:27:38;21.10;99.90
47336;DHT22;33068;51.990;5.926;2023-05-07T13:30:06;21.10;99.90
47336;DHT22;33068;51.990;5.926;2023-05-07T13:32:33;21.10;99.90
47336;DHT22;33068;51.990;5.926;2023-05-07T13:35:02;21.00;99.90
47336;DHT22;33068;51.990;5.926;2023-05-07T13:37:30;21.10;99.90
47336;DHT22;33068;51.990;5.926;2023-05-07T13:39:57;21.10;99.90
47336;DHT22;33068;51.990;5.926;2023-05-07T13:42:24;21.20;99.90
47336;DHT22;33068;51.990;5.926;2023-05-07T13:44:51;21.20;99.90
47336;DHT22;33068;51.990;5.926;2023-05-07T13:47:18;21.20;99.90
47336;DHT22;33068;51.990;5.926;2023-05-07T13:49:45;21.30;99.90
47336;DHT22;33068;51.990;5.926;2023-05-07T13:52:17;21.40;99.90
47336;DHT22;33068;51.990;5.926;2023-05-07T13:54:44;21.40;99.90
47336;DHT22;33068;51.990;5.926;2023-05-07T13:57:11;21.50;99.90
47336;DHT22;33068;51.990;5.926;2023-05-07T13:59:38;21.50;99.90
47336;DHT22;33068;51.990;5.926;2023-05-07T14:02:05;21.70;99.90
47336;DHT22;33068;51.990;5.926;2023-05-07T14:04:33;22.00;99.90
47336;DHT22;33068;51.990;5.926;2023-05-07T14:07:00;22.10;99.90
47336;DHT22;33068;51.990;5.926;2023-05-07T14:09:29;22.40;99.90
47336;DHT22;33068;51.990;5.926;2023-05-07T14:11:56;22.50;99.90
47336;DHT22;33068;51.990;5.926;2023-05-07T14:14:23;22.60;99.90
47336;DHT22;33068;51.990;5.926;2023-05-07T14:16:50;22.60;99.90
47336;DHT22;33068;51.990;5.926;2023-05-07T14:19:17;22.70;99.90
47336;DHT22;33068;51.990;5.926;2023-05-07T14:21:44;22.70;99.90
47336;DHT22;33068;51.990;5.926;2023-05-07T14:24:11;22.70;99.90
47336;DHT22;33068;51.990;5.926;2023-05-07T14:26:40;22.60;99.90
47336;DHT22;33068;51.990;5.926;2023-05-07T14:29:07;22.40;99.90
47336;DHT22;33068;51.990;5.926;2023-05-07T14:31:34;22.40;99.90
47336;DHT22;33068;51.990;5.926;2023-05-07T14:34:01;22.20;99.90
47336;DHT22;33068;51.990;5.926;2023-05-07T14:36:28;22.00;99.90
47336;DHT22;33068;51.990;5.926;2023-05-07T14:38:57;21.90;99.90
47336;DHT22;33068;51.990;5.926;2023-05-07T14:41:25;21.80;99.90
47336;DHT22;33068;51.990;5.926;2023-05-07T14:43:53;21.50;99.90
47336;DHT22;33068;51.990;5.926;2023-05-07T14:46:20;21.70;99.90
47336;DHT22;33068;51.990;5.926;2023-05-07T14:48:49;21.50;99.90
47336;DHT22;33068;51.990;5.926;2023-05-07T14:51:16;21.20;99.90
47336;DHT22;33068;51.990;5.926;2023-05-07T14:53:44;21.10;99.90
47336;DHT22;33068;51.990;5.926;2023-05-07T14:56:11;21.00;99.90
47336;DHT22;33068;51.990;5.926;2023-05-07T14:58:39;20.90;99.90
47336;DHT22;33068;51.990;5.926;2023-05-07T15:01:07;20.80;99.90
47336;DHT22;33068;51.990;5.926;2023-05-07T15:03:34;20.70;99.90
47336;DHT22;33068;51.990;5.926;2023-05-07T15:06:02;20.80;99.90
47336;DHT22;33068;51.990;5.926;2023-05-07T15:08:29;20.80;99.90
47336;DHT22;33068;51.990;5.926;2023-05-07T15:10:56;20.80;99.90
47336;DHT22;33068;51.990;5.926;2023-05-07T15:13:23;20.70;99.90
47336;DHT22;33068;51.990;5.926;2023-05-07T15:15:51;20.60;99.90
47336;DHT22;33068;51.990;5.926;2023-05-07T15:18:19;20.50;99.90
47336;DHT22;33068;51.990;5.926;2023-05-07T15:20:46;20.50;99.90
47336;DHT22;33068;51.990;5.926;2023-05-07T15:23:13;20.50;99.90
47336;DHT22;33068;51.990;5.926;2023-05-07T15:25:43;20.40;99.90
47336;DHT22;33068;51.990;5.926;2023-05-07T15:28:10;20.30;99.90
47336;DHT22;33068;51.990;5.926;2023-05-07T15:30:37;20.30;99.90
47336;DHT22;33068;51.990;5.926;2023-05-07T15:33:04;20.20;99.90
47336;DHT22;33068;51.990;5.926;2023-05-07T15:35:33;20.20;99.90
47336;DHT22;33068;51.990;5.926;2023-05-07T15:38:00;20.30;99.90
47336;DHT22;33068;51.990;5.926;2023-05-07T15:40:28;20.20;99.90
47336;DHT22;33068;51.990;5.926;2023-05-07T15:42:56;20.10;99.90
47336;DHT22;33068;51.990;5.926;2023-05-07T15:45:24;19.90;99.90
47336;DHT22;33068;51.990;5.926;2023-05-07T15:47:51;19.70;99.90